KBGM/BGM METAR and TAF weather

Enter ICAO airport designator
Station Type Date Time Source
KBGM METAR 2020/12/06 02:05 UTC NOAA

KBGM 060205Z AUTO 35011KT 10SM OVC014 M01/M04 A2982 RMK AO2 T10111039


Station Type Date Time Source
KBGM Decoded METAR 2020/12/06 02:05 UTC NOAA

BINGHAMTON REGIONAL AIRPORT, NY, United States (KBGM) 42-12N 75-59W 492M
Dec 05, 2020 - 09:05 PM EST / 2020.12.06 0205 UTC
Wind: from the N (350 degrees) at 13 MPH (11 KT):0
Visibility: 10 mile(s):0
Sky conditions: overcast
Temperature: 30.0 F (-1.1 C)
Windchill: 19 F (-7 C):1
Dew Point: 25.0 F (-3.9 C)
Relative Humidity: 81%
Pressure (altimeter): 29.82 in. Hg (1009 hPa)
ob: KBGM 060205Z AUTO 35011KT 10SM OVC014 M01/M04 A2982 RMK AO2 T10111039
cycle: 2

Station Type Date Time Source
KBGM TAF 2020/12/05 18:24 UTC NOAA

TAF KBGM 051721Z 0518/0618 34011G21KT P6SM SCT015 BKN025
FM060000 33013G20KT P6SM OVC009
FM060500 32010KT P6SM BKN015
FM061400 32011G19KT P6SM BKN015

Example: see airport list